createdAt,value
2019-04-16T00:01:49.882Z,26.37
2019-04-16T00:04:35.508Z,22.65
2019-04-16T00:07:20.788Z,29.55
2019-04-16T00:10:01.450Z,34.85
2019-04-16T00:12:30.323Z,22.98
2019-04-16T00:15:01.548Z,22.62
2019-04-16T00:17:28.771Z,25.85
2019-04-16T00:19:56.003Z,22.90
2019-04-16T00:22:24.901Z,27.98
2019-04-16T00:24:52.481Z,27.75
2019-04-16T00:27:19.710Z,22.93
2019-04-16T00:29:46.959Z,32.53
2019-04-16T00:32:15.885Z,25.15
2019-04-16T00:34:44.785Z,24.80
2019-04-16T00:37:12.183Z,30.50
2019-04-16T00:39:39.604Z,27.20
2019-04-16T00:42:06.828Z,21.82
2019-04-16T00:44:34.058Z,28.40
2019-04-16T00:47:01.287Z,23.62
2019-04-16T00:49:28.522Z,28.27
2019-04-16T00:51:55.953Z,25.62
2019-04-16T00:54:23.266Z,28.65
2019-04-16T00:56:50.505Z,23.30
2019-04-16T00:59:17.727Z,26.42
2019-04-16T01:01:44.975Z,21.65
2019-04-16T01:04:12.208Z,29.07
2019-04-16T01:06:40.701Z,27.35
2019-04-16T01:09:08.455Z,28.40
2019-04-16T01:11:35.696Z,27.42
2019-04-16T01:14:03.289Z,29.60
2019-04-16T01:16:32.939Z,29.35
2019-04-16T01:18:59.515Z,25.85
2019-04-16T01:21:26.756Z,29.50
2019-04-16T01:23:54.034Z,26.40
2019-04-16T01:26:21.296Z,32.23
2019-04-16T01:28:53.172Z,29.27
2019-04-16T01:31:27.799Z,28.57
2019-04-16T01:34:05.631Z,31.57
2019-04-16T01:36:51.426Z,30.35
2019-04-16T01:39:21.618Z,32.67
2019-04-16T01:41:50.314Z,26.55
2019-04-16T01:44:17.889Z,29.65
2019-04-16T01:46:45.115Z,34.73
2019-04-16T01:49:12.339Z,29.37
2019-04-16T01:51:39.579Z,30.48
2019-04-16T01:54:06.810Z,29.40
2019-04-16T01:56:34.053Z,24.60
2019-04-16T01:59:04.545Z,33.80
2019-04-16T02:01:30.267Z,29.07
2019-04-16T02:03:57.488Z,27.05
2019-04-16T02:06:26.060Z,24.43
2019-04-16T02:08:53.838Z,35.63
2019-04-16T02:11:21.066Z,27.87
2019-04-16T02:13:48.291Z,33.15
2019-04-16T02:16:15.518Z,26.30
2019-04-16T02:18:42.743Z,26.87
2019-04-16T02:21:11.185Z,38.67
2019-04-16T02:23:38.675Z,25.27
2019-04-16T02:26:05.893Z,29.00
2019-04-16T02:28:33.132Z,38.20
2019-04-16T02:31:00.591Z,31.25
2019-04-16T02:33:27.877Z,29.65
2019-04-16T02:35:55.101Z,28.20
2019-04-16T02:38:22.354Z,36.85
2019-04-16T02:40:52.793Z,31.60
2019-04-16T02:43:18.587Z,29.67
2019-04-16T02:45:45.810Z,26.82
2019-04-16T02:48:16.646Z,34.85
2019-04-16T02:50:49.839Z,29.42
2019-04-16T02:53:37.311Z,27.32
2019-04-16T02:56:22.534Z,24.45
2019-04-16T02:59:09.666Z,29.00
2019-04-16T03:01:52.564Z,38.33
2019-04-16T03:04:21.543Z,28.70
2019-04-16T03:06:48.841Z,43.10
2019-04-16T03:09:16.077Z,25.77
2019-04-16T03:11:45.562Z,37.05
2019-04-16T03:14:12.246Z,29.63
2019-04-16T03:16:44.041Z,33.28
2019-04-16T03:19:31.252Z,36.05
2019-04-16T03:21:59.180Z,35.52
2019-04-16T03:24:27.423Z,31.65
2019-04-16T03:26:54.644Z,34.92
2019-04-16T03:29:22.339Z,29.30
2019-04-16T03:31:57.655Z,24.02
2019-04-16T03:34:21.463Z,27.85
2019-04-16T03:36:47.463Z,26.35
2019-04-16T03:39:14.691Z,33.45
2019-04-16T03:41:41.918Z,31.82
2019-04-16T03:44:09.146Z,33.90
2019-04-16T03:46:36.367Z,33.00
2019-04-16T03:49:03.603Z,28.95
2019-04-16T03:51:32.536Z,31.65
2019-04-16T03:53:59.790Z,43.00
2019-04-16T03:56:27.535Z,28.17
2019-04-16T03:58:55.970Z,40.73
2019-04-16T04:01:23.195Z,33.20
2019-04-16T04:03:50.440Z,28.47
2019-04-16T04:06:17.754Z,29.95
2019-04-16T04:08:47.885Z,33.18
2019-04-16T04:11:14.173Z,45.50
2019-04-16T04:13:49.735Z,31.33
2019-04-16T04:16:13.131Z,33.80
2019-04-16T04:18:42.963Z,30.20
2019-04-16T04:21:09.298Z,31.60
2019-04-16T04:23:36.535Z,32.23
2019-04-16T04:26:05.592Z,28.52
2019-04-16T04:28:32.724Z,29.80
2019-04-16T04:31:00.763Z,31.30
2019-04-16T04:33:40.954Z,42.80
2019-04-16T04:36:05.756Z,38.80
2019-04-16T04:38:33.579Z,30.35
2019-04-16T04:41:02.271Z,45.73
2019-04-16T04:43:32.001Z,34.73
2019-04-16T04:45:58.469Z,31.82
2019-04-16T04:48:25.683Z,36.28
2019-04-16T04:50:52.907Z,34.20
2019-04-16T04:53:20.184Z,28.90
2019-04-16T04:55:47.459Z,33.88
2019-04-16T04:58:14.669Z,33.33
2019-04-16T05:00:41.904Z,31.87
2019-04-16T05:03:12.380Z,36.20
2019-04-16T05:05:44.273Z,29.12
2019-04-16T05:08:11.504Z,38.48
2019-04-16T05:10:42.758Z,34.53
2019-04-16T05:13:07.679Z,30.88
2019-04-16T05:15:34.919Z,37.67
2019-04-16T05:18:02.139Z,37.67
2019-04-16T05:20:29.941Z,32.80
2019-04-16T05:22:58.123Z,41.85
2019-04-16T05:25:25.475Z,35.63
2019-04-16T05:27:52.703Z,38.45
2019-04-16T05:30:21.068Z,41.70
2019-04-16T05:32:48.876Z,46.92
2019-04-16T05:35:16.171Z,33.88
2019-04-16T05:37:43.452Z,25.80
2019-04-16T05:40:10.793Z,37.90
2019-04-16T05:42:38.011Z,28.75
2019-04-16T05:45:06.780Z,37.63
2019-04-16T05:47:34.003Z,34.83
2019-04-16T05:50:01.232Z,32.98
2019-04-16T05:52:28.446Z,28.15
2019-04-16T05:55:01.381Z,42.67
2019-04-16T05:57:30.588Z,34.05
2019-04-16T05:59:57.822Z,37.08
2019-04-16T06:02:43.910Z,37.42
2019-04-16T06:05:11.218Z,36.15
2019-04-16T06:07:38.781Z,34.53
2019-04-16T06:10:07.132Z,35.40
2019-04-16T06:12:39.886Z,40.05
2019-04-16T06:15:24.886Z,39.20
2019-04-16T06:17:59.445Z,35.13
2019-04-16T06:20:31.218Z,42.03
2019-04-16T06:23:08.617Z,30.82
2019-04-16T06:25:43.428Z,37.17
2019-04-16T06:28:12.282Z,33.95
2019-04-16T06:30:41.158Z,37.75
2019-04-16T06:33:10.027Z,44.00
2019-04-16T06:35:55.251Z,35.10
2019-04-16T06:38:24.114Z,33.92
2019-04-16T06:40:55.798Z,38.50
2019-04-16T06:43:26.129Z,34.63
2019-04-16T06:46:11.573Z,30.05
2019-04-16T06:48:42.493Z,33.00
2019-04-16T06:51:12.541Z,35.23
2019-04-16T06:53:57.571Z,42.43
2019-04-16T06:56:41.431Z,31.62
2019-04-16T06:59:10.308Z,34.85
2019-04-16T07:01:55.489Z,31.97
2019-04-16T07:04:29.489Z,41.60
2019-04-16T07:07:14.135Z,42.27
2019-04-16T07:09:45.684Z,34.90
2019-04-16T07:12:13.600Z,42.90
2019-04-16T07:14:40.828Z,41.30
2019-04-16T07:17:08.055Z,32.40
2019-04-16T07:19:35.276Z,44.53
2019-04-16T07:22:02.509Z,31.37
2019-04-16T07:24:31.472Z,38.93
2019-04-16T07:26:58.706Z,42.43
2019-04-16T07:29:31.666Z,35.00
2019-04-16T07:32:13.450Z,33.40
2019-04-16T07:34:42.491Z,33.20
2019-04-16T07:37:23.423Z,33.97
2019-04-16T07:39:52.298Z,43.00
2019-04-16T07:42:22.314Z,35.87
2019-04-16T07:45:11.491Z,35.40
2019-04-16T07:47:38.312Z,42.20
2019-04-16T07:50:24.275Z,36.77
2019-04-16T07:52:55.803Z,36.30
2019-04-16T07:55:41.337Z,45.33
2019-04-16T07:58:08.563Z,40.33
2019-04-16T08:00:40.372Z,39.87
2019-04-16T08:03:04.748Z,43.00
2019-04-16T08:05:32.349Z,42.83
2019-04-16T08:07:59.642Z,35.07
2019-04-16T08:10:26.869Z,37.00
2019-04-16T08:12:56.959Z,34.20
2019-04-16T08:15:24.691Z,38.30
2019-04-16T08:17:51.925Z,38.70
2019-04-16T08:20:20.926Z,41.20
2019-04-16T08:22:48.996Z,45.47
2019-04-16T08:25:17.946Z,42.37
2019-04-16T08:27:47.159Z,38.03
2019-04-16T08:30:14.651Z,39.90
2019-04-16T08:32:41.883Z,40.60
2019-04-16T08:35:09.099Z,37.90
2019-04-16T08:37:48.265Z,38.33
2019-04-16T08:40:08.826Z,35.57
2019-04-16T08:42:44.411Z,35.57
2019-04-16T08:45:07.704Z,35.13
2019-04-16T08:47:33.677Z,39.13
2019-04-16T08:50:00.903Z,38.03
2019-04-16T08:52:28.126Z,43.20
2019-04-16T08:54:55.359Z,37.33
2019-04-16T08:57:22.591Z,34.83
2019-04-16T08:59:49.812Z,35.53
2019-04-16T09:02:17.041Z,37.60
2019-04-16T09:04:44.271Z,37.20
2019-04-16T09:07:19.598Z,40.10
2019-04-16T09:09:47.039Z,42.90
2019-04-16T09:12:14.277Z,36.70
2019-04-16T09:14:43.368Z,37.53
2019-04-16T09:17:15.188Z,40.13
2019-04-16T09:19:44.053Z,38.73
2019-04-16T09:22:15.518Z,43.23
2019-04-16T09:24:44.742Z,39.47
2019-04-16T09:27:19.438Z,36.10
2019-04-16T09:30:04.700Z,44.90
2019-04-16T09:32:33.579Z,39.50
2019-04-16T09:35:10.099Z,38.50
2019-04-16T09:37:51.166Z,38.83
2019-04-16T09:40:36.700Z,38.20
2019-04-16T09:43:16.090Z,40.67
2019-04-16T09:45:37.154Z,53.37
2019-04-16T09:48:03.909Z,45.03
2019-04-16T09:50:31.383Z,43.70
2019-04-16T09:53:01.714Z,35.40
2019-04-16T09:55:27.632Z,40.87
2019-04-16T09:57:55.035Z,42.40
2019-04-16T10:00:24.040Z,40.07
2019-04-16T10:02:51.353Z,39.03
2019-04-16T10:05:18.661Z,30.30
2019-04-16T10:07:45.960Z,35.50
2019-04-16T10:10:13.250Z,37.80
2019-04-16T10:12:40.501Z,41.77
2019-04-16T10:15:08.135Z,35.90
2019-04-16T10:17:35.430Z,40.10
2019-04-16T10:20:02.694Z,34.60
2019-04-16T10:22:29.975Z,54.20
2019-04-16T10:25:07.739Z,39.17
2019-04-16T10:27:39.074Z,36.10
2019-04-16T10:30:08.297Z,39.40
2019-04-16T10:32:35.547Z,43.27
2019-04-16T10:35:02.804Z,34.07
2019-04-16T10:37:30.197Z,46.50
2019-04-16T10:39:59.093Z,34.47
2019-04-16T10:42:30.631Z,42.13
2019-04-16T10:45:02.214Z,33.50
2019-04-16T10:47:49.278Z,37.70
2019-04-16T10:50:24.266Z,36.23
2019-04-16T10:52:59.255Z,34.43
2019-04-16T10:55:28.233Z,35.53
2019-04-16T10:58:13.783Z,33.57
2019-04-16T11:00:59.002Z,32.60
2019-04-16T11:03:36.655Z,37.27
2019-04-16T11:06:05.664Z,37.87
2019-04-16T11:08:33.164Z,31.20
2019-04-16T11:11:00.407Z,34.50
2019-04-16T11:13:32.207Z,39.43
2019-04-16T11:16:01.132Z,27.23
2019-04-16T11:18:28.359Z,27.63
2019-04-16T11:20:55.577Z,30.60
2019-04-16T11:23:22.817Z,31.70
2019-04-16T11:25:50.031Z,33.33
2019-04-16T11:28:17.275Z,41.57
2019-04-16T11:30:48.760Z,31.77
2019-04-16T11:33:15.147Z,28.93
2019-04-16T11:35:42.457Z,31.57
2019-04-16T11:38:09.715Z,35.73
2019-04-16T11:40:37.007Z,25.00
2019-04-16T11:43:04.252Z,29.43
2019-04-16T11:45:31.496Z,33.27
2019-04-16T11:47:58.708Z,27.57
2019-04-16T11:50:26.224Z,26.40
2019-04-16T11:52:57.273Z,29.93
2019-04-16T11:55:22.521Z,34.67
2019-04-16T11:57:49.808Z,34.67
2019-04-16T12:00:19.275Z,35.40
2019-04-16T12:02:56.970Z,30.03
2019-04-16T12:05:34.877Z,36.83
2019-04-16T12:08:19.905Z,31.63
2019-04-16T12:11:00.830Z,26.60
2019-04-16T12:13:41.484Z,27.03
2019-04-16T12:16:13.076Z,29.97
2019-04-16T12:18:54.107Z,30.43
2019-04-16T12:21:25.619Z,38.10
2019-04-16T12:24:03.780Z,32.87
2019-04-16T12:26:32.846Z,39.30
2019-04-16T12:29:02.083Z,34.07
2019-04-16T12:31:33.937Z,40.63
2019-04-16T12:34:02.820Z,33.40
2019-04-16T12:36:48.265Z,31.67
2019-04-16T12:39:35.607Z,34.43
2019-04-16T12:42:02.803Z,35.53
2019-04-16T12:44:45.288Z,41.50
2019-04-16T12:47:05.182Z,27.50
2019-04-16T12:49:50.700Z,27.73
2019-04-16T12:52:35.951Z,28.63
2019-04-16T12:55:05.106Z,29.73
2019-04-16T12:57:49.073Z,27.93
2019-04-16T13:00:18.256Z,34.77
2019-04-16T13:02:47.122Z,36.13
2019-04-16T13:05:21.850Z,35.33
2019-04-16T13:07:53.273Z,33.10
2019-04-16T13:10:22.135Z,29.77
2019-04-16T13:12:57.047Z,33.50
2019-04-16T13:15:44.042Z,37.50
2019-04-16T13:18:12.924Z,39.60
2019-04-16T13:20:44.427Z,36.20
2019-04-16T13:23:30.061Z,32.77
2019-04-16T13:25:58.990Z,29.00
2019-04-16T13:28:26.610Z,37.30
2019-04-16T13:30:53.832Z,30.63
2019-04-16T13:33:21.063Z,40.80
2019-04-16T13:35:48.285Z,39.00
2019-04-16T13:38:17.155Z,39.73
2019-04-16T13:40:44.399Z,27.07
2019-04-16T13:43:13.290Z,38.77
2019-04-16T13:45:40.522Z,31.70
2019-04-16T13:48:16.613Z,30.00
2019-04-16T13:50:42.934Z,33.83
2019-04-16T13:53:11.957Z,34.40
2019-04-16T13:55:57.390Z,41.00
2019-04-16T13:58:28.919Z,32.50
2019-04-16T14:00:57.776Z,26.23
2019-04-16T14:03:25.051Z,29.83
2019-04-16T14:05:52.274Z,35.50
2019-04-16T14:08:19.508Z,35.73
2019-04-16T14:10:46.734Z,29.40
2019-04-16T14:13:14.381Z,37.13
2019-04-16T14:15:44.618Z,29.27
2019-04-16T14:18:10.636Z,28.80
2019-04-16T14:20:37.864Z,23.60
2019-04-16T14:23:05.088Z,31.90
2019-04-16T14:25:32.405Z,32.03
2019-04-16T14:28:03.096Z,32.50
2019-04-16T14:30:30.342Z,28.37
2019-04-16T14:32:58.091Z,27.20
2019-04-16T14:35:33.487Z,30.33
2019-04-16T14:37:59.009Z,26.30
2019-04-16T14:40:26.312Z,19.93
2019-04-16T14:42:57.608Z,22.80
2019-04-16T14:45:24.499Z,26.80
2019-04-16T14:47:51.723Z,30.30
2019-04-16T14:50:19.977Z,26.13
2019-04-16T14:52:47.915Z,31.00
2019-04-16T14:55:33.342Z,30.20
2019-04-16T14:58:18.676Z,29.47
2019-04-16T15:00:59.575Z,29.10
2019-04-16T15:03:44.920Z,29.90
2019-04-16T15:06:19.719Z,26.50
2019-04-16T15:08:49.195Z,42.43
2019-04-16T15:11:36.327Z,22.83
2019-04-16T15:14:11.279Z,25.27
2019-04-16T15:16:42.737Z,24.60
2019-04-16T15:19:23.731Z,27.53
2019-04-16T15:22:08.125Z,25.87
2019-04-16T15:24:48.812Z,20.83
2019-04-16T15:27:28.138Z,29.30
2019-04-16T15:29:57.844Z,29.07
2019-04-16T15:32:29.880Z,26.20
2019-04-16T15:34:57.972Z,28.27
2019-04-16T15:37:26.842Z,30.63
2019-04-16T15:39:59.275Z,29.37
2019-04-16T15:42:42.824Z,25.93
2019-04-16T15:45:14.819Z,25.53
2019-04-16T15:47:46.958Z,34.17
2019-04-16T15:50:22.051Z,28.50
2019-04-16T15:52:50.908Z,29.50
2019-04-16T15:55:28.607Z,29.80
2019-04-16T15:58:00.163Z,28.87
2019-04-16T16:00:29.119Z,32.67
2019-04-16T16:03:10.203Z,28.00
2019-04-16T16:05:45.248Z,24.27
2019-04-16T16:08:17.087Z,22.33
2019-04-16T16:10:54.665Z,27.07
2019-04-16T16:13:22.701Z,25.50
2019-04-16T16:15:50.851Z,25.40
2019-04-16T16:18:18.075Z,33.73
2019-04-16T16:20:45.301Z,27.70
2019-04-16T16:23:12.541Z,24.57
2019-04-16T16:25:41.402Z,29.13
2019-04-16T16:28:09.111Z,27.87
2019-04-16T16:30:36.344Z,30.10
2019-04-16T16:33:03.713Z,28.10
2019-04-16T16:35:34.493Z,30.83
2019-04-16T16:37:59.897Z,32.97
2019-04-16T16:40:27.119Z,37.30
2019-04-16T16:42:54.471Z,45.20
2019-04-16T16:45:23.392Z,35.03
2019-04-16T16:47:50.708Z,32.20
2019-04-16T16:50:18.013Z,34.87
2019-04-16T16:52:49.838Z,28.23
2019-04-16T16:55:20.543Z,30.20
2019-04-16T16:57:52.416Z,32.60
2019-04-16T17:00:23.874Z,32.03
2019-04-16T17:02:51.911Z,42.43
2019-04-16T17:05:25.684Z,31.40
2019-04-16T17:07:53.725Z,24.90
2019-04-16T17:10:22.026Z,25.93
2019-04-16T17:12:49.271Z,25.93
2019-04-16T17:15:16.503Z,33.13
2019-04-16T17:17:44.337Z,30.00
2019-04-16T17:20:11.617Z,35.07
2019-04-16T17:22:40.777Z,41.40
2019-04-16T17:25:11.960Z,26.80
2019-04-16T17:27:50.620Z,29.10
2019-04-16T17:30:06.061Z,31.00
2019-04-16T17:32:33.291Z,31.43
2019-04-16T17:35:00.541Z,29.07
2019-04-16T17:37:28.848Z,26.47
2019-04-16T17:39:57.821Z,32.77
2019-04-16T17:42:26.698Z,33.30
2019-04-16T17:45:07.883Z,27.00
2019-04-16T17:47:55.664Z,26.70
2019-04-16T17:50:40.363Z,28.33
2019-04-16T17:53:27.273Z,35.30
2019-04-16T17:55:59.190Z,33.53
2019-04-16T17:58:31.215Z,34.60
2019-04-16T18:01:00.086Z,38.53
2019-04-16T18:03:37.789Z,32.70
2019-04-16T18:06:20.331Z,31.67
2019-04-16T18:09:00.035Z,40.60
2019-04-16T18:11:41.030Z,28.00
2019-04-16T18:14:14.405Z,25.27
2019-04-16T18:16:43.322Z,36.77
2019-04-16T18:19:18.189Z,23.70
2019-04-16T18:21:49.776Z,38.17
2019-04-16T18:24:21.347Z,28.30
2019-04-16T18:27:06.731Z,30.43
2019-04-16T18:29:35.605Z,27.40
2019-04-16T18:32:22.720Z,24.43
2019-04-16T18:35:06.606Z,28.60
2019-04-16T18:37:35.549Z,29.17
2019-04-16T18:40:20.968Z,22.87
2019-04-16T18:43:06.266Z,24.90
2019-04-16T18:45:55.837Z,24.17
2019-04-16T18:48:44.606Z,18.73
2019-04-16T18:51:09.238Z,24.83
2019-04-16T18:53:36.535Z,22.80
2019-04-16T18:56:03.777Z,23.93
2019-04-16T18:58:31.010Z,18.93
2019-04-16T19:00:59.923Z,21.87
2019-04-16T19:03:27.164Z,17.93
2019-04-16T19:05:54.643Z,21.97
2019-04-16T19:08:21.948Z,17.80
2019-04-16T19:10:49.193Z,22.17
2019-04-16T19:13:19.746Z,20.00
2019-04-16T19:15:45.403Z,19.60
2019-04-16T19:18:19.621Z,22.50
2019-04-16T19:20:41.815Z,24.27
2019-04-16T19:23:09.110Z,16.37
2019-04-16T19:25:36.348Z,23.53
2019-04-16T19:28:06.607Z,21.23
2019-04-16T19:30:32.689Z,23.93
2019-04-16T19:33:01.663Z,25.30
2019-04-16T19:35:28.885Z,19.63
2019-04-16T19:37:56.252Z,27.63
2019-04-16T19:40:24.225Z,26.60
2019-04-16T19:42:51.652Z,19.90
2019-04-16T19:45:19.034Z,23.50
2019-04-16T19:47:46.511Z,22.37
2019-04-16T19:50:13.902Z,21.37
2019-04-16T19:52:41.181Z,24.20
2019-04-16T19:55:12.406Z,18.17
2019-04-16T19:57:37.440Z,24.50
2019-04-16T20:00:07.472Z,16.47
2019-04-16T20:02:34.701Z,23.47
2019-04-16T20:05:01.936Z,20.40
2019-04-16T20:07:32.610Z,22.00
2019-04-16T20:09:58.225Z,18.60
2019-04-16T20:12:28.017Z,21.40
2019-04-16T20:14:54.471Z,20.00
2019-04-16T20:17:21.718Z,17.47
2019-04-16T20:19:58.613Z,17.53
2019-04-16T20:22:26.931Z,18.70
2019-04-16T20:24:54.241Z,19.27
2019-04-16T20:27:21.477Z,19.83
2019-04-16T20:29:48.882Z,20.63
2019-04-16T20:32:16.119Z,21.30
2019-04-16T20:34:45.243Z,21.83
2019-04-16T20:37:12.313Z,21.47
2019-04-16T20:39:40.823Z,23.00
2019-04-16T20:42:08.498Z,22.13
2019-04-16T20:44:35.729Z,19.43
2019-04-16T20:47:07.742Z,16.33
2019-04-16T20:49:31.906Z,24.13
2019-04-16T20:52:00.997Z,62.03
2019-04-16T20:54:28.123Z,24.60
2019-04-16T20:56:56.695Z,21.17
2019-04-16T20:59:23.933Z,22.30
2019-04-16T21:01:52.820Z,16.33
2019-04-16T21:04:20.067Z,19.90
2019-04-16T21:06:47.296Z,15.87
2019-04-16T21:09:14.535Z,15.13
2019-04-16T21:11:41.900Z,17.13
2019-04-16T21:14:09.238Z,18.23
2019-04-16T21:16:36.482Z,19.07
2019-04-16T21:19:03.893Z,22.63
2019-04-16T21:21:31.119Z,22.43
2019-04-16T21:23:59.992Z,19.60
2019-04-16T21:26:27.225Z,20.20
2019-04-16T21:28:58.233Z,24.23
2019-04-16T21:31:26.736Z,22.90
2019-04-16T21:33:55.642Z,19.93
2019-04-16T21:36:41.783Z,24.30
2019-04-16T21:39:17.444Z,22.40
2019-04-16T21:41:45.253Z,41.30
2019-04-16T21:44:13.272Z,29.00
2019-04-16T21:46:40.749Z,23.53
2019-04-16T21:49:09.002Z,23.43
2019-04-16T21:51:38.031Z,21.60
2019-04-16T21:54:05.263Z,21.10
2019-04-16T21:56:32.879Z,21.87
2019-04-16T21:59:00.162Z,24.97
2019-04-16T22:01:29.094Z,21.17
2019-04-16T22:04:00.662Z,23.80
2019-04-16T22:06:27.905Z,25.73
2019-04-16T22:08:55.127Z,24.97
2019-04-16T22:11:22.361Z,23.97
2019-04-16T22:13:50.675Z,20.00
2019-04-16T22:16:21.570Z,24.60
2019-04-16T22:18:48.787Z,21.80
2019-04-16T22:21:16.011Z,21.50
2019-04-16T22:23:43.253Z,25.83
2019-04-16T22:26:11.101Z,26.20
2019-04-16T22:28:38.502Z,28.07
2019-04-16T22:31:05.719Z,22.20
2019-04-16T22:33:32.971Z,23.37
2019-04-16T22:36:02.288Z,19.03
2019-04-16T22:38:31.299Z,21.63
2019-04-16T22:41:06.346Z,26.57
2019-04-16T22:43:42.640Z,22.67
2019-04-16T22:46:15.119Z,19.33
2019-04-16T22:48:56.547Z,22.60
2019-04-16T22:51:24.679Z,24.37
2019-04-16T22:53:51.902Z,18.90
2019-04-16T22:56:19.908Z,20.13
2019-04-16T22:58:47.725Z,17.40
2019-04-16T23:01:14.942Z,18.63
2019-04-16T23:03:42.176Z,19.67
2019-04-16T23:06:09.422Z,26.47
2019-04-16T23:08:36.673Z,22.23
2019-04-16T23:11:03.890Z,25.37
2019-04-16T23:13:32.677Z,24.67
2019-04-16T23:16:00.076Z,27.80
2019-04-16T23:18:27.329Z,25.10
2019-04-16T23:20:54.548Z,20.17
2019-04-16T23:23:21.791Z,25.40
2019-04-16T23:25:49.007Z,23.00
2019-04-16T23:28:16.246Z,23.10
2019-04-16T23:30:43.476Z,18.93
2019-04-16T23:33:10.714Z,19.87
2019-04-16T23:35:43.345Z,27.13
2019-04-16T23:38:06.892Z,24.20
2019-04-16T23:40:34.111Z,25.23
2019-04-16T23:43:11.781Z,35.67
2019-04-16T23:45:46.368Z,25.70
2019-04-16T23:48:20.924Z,26.27
2019-04-16T23:50:52.742Z,24.50
2019-04-16T23:53:33.838Z,26.37
2019-04-16T23:56:02.701Z,25.80
2019-04-16T23:58:49.532Z,27.20
